sensor_id;sensor_type;location;lat;lon;timestamp;P1;durP1;ratioP1;P2;durP2;ratioP2
65755;SDS011;69208;47.502;18.940;2023-12-29T00:00:35;17.12;;;9.38;;
65755;SDS011;69208;47.502;18.940;2023-12-29T00:01:40;9.85;;;7.75;;
65755;SDS011;69208;47.502;18.940;2023-12-29T00:02:43;10.63;;;7.87;;
65755;SDS011;69208;47.502;18.940;2023-12-29T00:03:47;11.23;;;7.47;;
65755;SDS011;69208;47.502;18.940;2023-12-29T00:04:51;12.02;;;8.02;;
65755;SDS011;69208;47.502;18.940;2023-12-29T00:05:54;11.55;;;8.05;;
65755;SDS011;69208;47.502;18.940;2023-12-29T00:06:57;10.63;;;7.57;;
65755;SDS011;69208;47.502;18.940;2023-12-29T00:08:04;12.20;;;7.70;;
65755;SDS011;69208;47.502;18.940;2023-12-29T00:09:08;13.50;;;8.27;;
65755;SDS011;69208;47.502;18.940;2023-12-29T00:10:12;10.10;;;7.20;;
65755;SDS011;69208;47.502;18.940;2023-12-29T00:11:21;13.38;;;7.97;;
65755;SDS011;69208;47.502;18.940;2023-12-29T00:12:24;11.25;;;7.35;;
65755;SDS011;69208;47.502;18.940;2023-12-29T00:13:28;9.77;;;7.53;;
65755;SDS011;69208;47.502;18.940;2023-12-29T00:14:31;9.95;;;7.10;;
65755;SDS011;69208;47.502;18.940;2023-12-29T00:15:34;10.65;;;7.10;;
65755;SDS011;69208;47.502;18.940;2023-12-29T00:16:38;11.20;;;7.47;;
65755;SDS011;69208;47.502;18.940;2023-12-29T00:17:41;10.60;;;7.30;;
65755;SDS011;69208;47.502;18.940;2023-12-29T00:18:45;11.20;;;7.68;;
65755;SDS011;69208;47.502;18.940;2023-12-29T00:19:48;10.77;;;7.75;;
65755;SDS011;69208;47.502;18.940;2023-12-29T00:20:52;9.75;;;7.40;;
65755;SDS011;69208;47.502;18.940;2023-12-29T00:22:09;10.10;;;6.90;;
65755;SDS011;69208;47.502;18.940;2023-12-29T00:23:12;10.75;;;7.87;;
65755;SDS011;69208;47.502;18.940;2023-12-29T00:24:15;11.05;;;7.53;;
65755;SDS011;69208;47.502;18.940;2023-12-29T00:25:19;10.52;;;7.45;;
65755;SDS011;69208;47.502;18.940;2023-12-29T00:26:22;9.40;;;6.90;;
65755;SDS011;69208;47.502;18.940;2023-12-29T00:27:26;10.63;;;7.65;;
65755;SDS011;69208;47.502;18.940;2023-12-29T00:28:29;10.85;;;7.40;;
65755;SDS011;69208;47.502;18.940;2023-12-29T00:29:33;11.02;;;7.07;;
65755;SDS011;69208;47.502;18.940;2023-12-29T00:30:38;10.57;;;7.55;;
65755;SDS011;69208;47.502;18.940;2023-12-29T00:31:59;13.75;;;7.90;;
65755;SDS011;69208;47.502;18.940;2023-12-29T00:33:06;9.02;;;6.95;;
65755;SDS011;69208;47.502;18.940;2023-12-29T00:34:10;11.35;;;7.37;;
65755;SDS011;69208;47.502;18.940;2023-12-29T00:35:13;8.70;;;6.75;;
65755;SDS011;69208;47.502;18.940;2023-12-29T00:36:20;10.13;;;7.47;;
65755;SDS011;69208;47.502;18.940;2023-12-29T00:37:24;9.98;;;6.80;;
65755;SDS011;69208;47.502;18.940;2023-12-29T00:38:27;10.20;;;7.53;;
65755;SDS011;69208;47.502;18.940;2023-12-29T00:39:31;11.38;;;7.00;;
65755;SDS011;69208;47.502;18.940;2023-12-29T00:40:42;11.50;;;7.43;;
65755;SDS011;69208;47.502;18.940;2023-12-29T00:41:45;11.05;;;7.05;;
65755;SDS011;69208;47.502;18.940;2023-12-29T00:42:49;11.20;;;8.00;;
65755;SDS011;69208;47.502;18.940;2023-12-29T00:43:52;12.15;;;8.02;;
65755;SDS011;69208;47.502;18.940;2023-12-29T00:44:55;12.43;;;7.85;;
65755;SDS011;69208;47.502;18.940;2023-12-29T00:46:00;11.82;;;7.60;;
65755;SDS011;69208;47.502;18.940;2023-12-29T00:47:04;11.02;;;7.80;;
65755;SDS011;69208;47.502;18.940;2023-12-29T00:48:07;10.07;;;7.45;;
65755;SDS011;69208;47.502;18.940;2023-12-29T00:49:12;9.43;;;7.25;;
65755;SDS011;69208;47.502;18.940;2023-12-29T00:50:15;10.00;;;7.15;;
65755;SDS011;69208;47.502;18.940;2023-12-29T00:51:19;10.25;;;7.18;;
65755;SDS011;69208;47.502;18.940;2023-12-29T00:52:22;11.73;;;6.90;;
65755;SDS011;69208;47.502;18.940;2023-12-29T00:53:25;11.65;;;7.05;;
65755;SDS011;69208;47.502;18.940;2023-12-29T00:54:29;9.23;;;7.12;;
65755;SDS011;69208;47.502;18.940;2023-12-29T00:55:32;11.93;;;7.70;;
65755;SDS011;69208;47.502;18.940;2023-12-29T00:56:35;12.15;;;7.72;;
65755;SDS011;69208;47.502;18.940;2023-12-29T00:57:38;11.25;;;7.55;;
65755;SDS011;69208;47.502;18.940;2023-12-29T00:58:42;11.60;;;7.43;;
65755;SDS011;69208;47.502;18.940;2023-12-29T00:59:46;11.65;;;8.05;;
65755;SDS011;69208;47.502;18.940;2023-12-29T01:00:50;9.95;;;7.57;;
65755;SDS011;69208;47.502;18.940;2023-12-29T01:01:53;11.00;;;7.55;;
65755;SDS011;69208;47.502;18.940;2023-12-29T01:02:57;11.60;;;8.10;;
65755;SDS011;69208;47.502;18.940;2023-12-29T01:04:01;9.95;;;7.60;;
65755;SDS011;69208;47.502;18.940;2023-12-29T01:05:06;12.45;;;7.75;;
65755;SDS011;69208;47.502;18.940;2023-12-29T01:06:09;10.95;;;7.05;;
65755;SDS011;69208;47.502;18.940;2023-12-29T01:07:13;10.90;;;7.00;;
65755;SDS011;69208;47.502;18.940;2023-12-29T01:08:16;9.27;;;6.72;;
65755;SDS011;69208;47.502;18.940;2023-12-29T01:09:20;9.80;;;6.85;;
65755;SDS011;69208;47.502;18.940;2023-12-29T01:10:23;10.02;;;6.82;;
65755;SDS011;69208;47.502;18.940;2023-12-29T01:11:26;9.77;;;7.03;;
65755;SDS011;69208;47.502;18.940;2023-12-29T01:12:29;9.25;;;6.75;;
65755;SDS011;69208;47.502;18.940;2023-12-29T01:13:32;9.75;;;7.03;;
65755;SDS011;69208;47.502;18.940;2023-12-29T01:14:37;8.82;;;6.50;;
65755;SDS011;69208;47.502;18.940;2023-12-29T01:15:40;10.02;;;7.00;;
65755;SDS011;69208;47.502;18.940;2023-12-29T01:16:48;8.38;;;6.03;;
65755;SDS011;69208;47.502;18.940;2023-12-29T01:17:51;9.65;;;6.53;;
65755;SDS011;69208;47.502;18.940;2023-12-29T01:18:54;9.20;;;6.50;;
65755;SDS011;69208;47.502;18.940;2023-12-29T01:19:58;11.38;;;6.97;;
65755;SDS011;69208;47.502;18.940;2023-12-29T01:21:02;9.93;;;6.68;;
65755;SDS011;69208;47.502;18.940;2023-12-29T01:22:05;14.38;;;7.18;;
65755;SDS011;69208;47.502;18.940;2023-12-29T01:23:10;9.75;;;6.37;;
65755;SDS011;69208;47.502;18.940;2023-12-29T01:24:13;8.98;;;6.70;;
65755;SDS011;69208;47.502;18.940;2023-12-29T01:25:19;12.07;;;7.70;;
65755;SDS011;69208;47.502;18.940;2023-12-29T01:26:22;9.25;;;6.60;;
65755;SDS011;69208;47.502;18.940;2023-12-29T01:27:25;9.65;;;6.87;;
65755;SDS011;69208;47.502;18.940;2023-12-29T01:28:29;10.02;;;6.97;;
65755;SDS011;69208;47.502;18.940;2023-12-29T01:29:32;12.40;;;6.90;;
65755;SDS011;69208;47.502;18.940;2023-12-29T01:30:35;10.07;;;7.07;;
65755;SDS011;69208;47.502;18.940;2023-12-29T01:31:39;9.63;;;7.00;;
65755;SDS011;69208;47.502;18.940;2023-12-29T01:32:42;9.40;;;6.82;;
65755;SDS011;69208;47.502;18.940;2023-12-29T01:33:46;12.30;;;7.12;;
65755;SDS011;69208;47.502;18.940;2023-12-29T01:34:49;12.95;;;7.75;;
65755;SDS011;69208;47.502;18.940;2023-12-29T01:35:53;10.05;;;7.15;;
65755;SDS011;69208;47.502;18.940;2023-12-29T01:36:55;11.35;;;7.18;;
65755;SDS011;69208;47.502;18.940;2023-12-29T01:37:59;11.75;;;7.37;;
65755;SDS011;69208;47.502;18.940;2023-12-29T01:39:04;10.30;;;7.10;;
65755;SDS011;69208;47.502;18.940;2023-12-29T01:40:08;12.93;;;7.05;;
65755;SDS011;69208;47.502;18.940;2023-12-29T01:41:12;11.68;;;7.15;;
65755;SDS011;69208;47.502;18.940;2023-12-29T01:42:16;8.43;;;6.85;;
65755;SDS011;69208;47.502;18.940;2023-12-29T01:43:19;9.10;;;7.07;;
65755;SDS011;69208;47.502;18.940;2023-12-29T01:44:22;10.52;;;7.35;;
65755;SDS011;69208;47.502;18.940;2023-12-29T01:45:25;9.80;;;6.72;;
65755;SDS011;69208;47.502;18.940;2023-12-29T01:46:31;8.95;;;6.20;;
65755;SDS011;69208;47.502;18.940;2023-12-29T01:47:36;9.70;;;5.62;;
65755;SDS011;69208;47.502;18.940;2023-12-29T01:48:39;11.70;;;7.20;;
65755;SDS011;69208;47.502;18.940;2023-12-29T01:49:43;8.77;;;6.55;;
65755;SDS011;69208;47.502;18.940;2023-12-29T01:50:48;11.07;;;6.72;;
65755;SDS011;69208;47.502;18.940;2023-12-29T01:51:53;8.77;;;6.12;;
65755;SDS011;69208;47.502;18.940;2023-12-29T01:52:59;9.15;;;6.68;;
65755;SDS011;69208;47.502;18.940;2023-12-29T01:54:04;9.27;;;6.53;;
65755;SDS011;69208;47.502;18.940;2023-12-29T01:55:08;11.68;;;6.80;;
65755;SDS011;69208;47.502;18.940;2023-12-29T01:56:15;9.30;;;7.25;;
65755;SDS011;69208;47.502;18.940;2023-12-29T01:57:19;10.52;;;7.07;;
65755;SDS011;69208;47.502;18.940;2023-12-29T01:58:23;9.27;;;7.10;;
65755;SDS011;69208;47.502;18.940;2023-12-29T01:59:26;9.00;;;6.30;;
65755;SDS011;69208;47.502;18.940;2023-12-29T02:00:31;10.95;;;6.60;;
65755;SDS011;69208;47.502;18.940;2023-12-29T02:01:37;9.70;;;6.40;;
65755;SDS011;69208;47.502;18.940;2023-12-29T02:02:46;10.55;;;6.35;;
65755;SDS011;69208;47.502;18.940;2023-12-29T02:03:49;10.60;;;6.82;;
65755;SDS011;69208;47.502;18.940;2023-12-29T02:04:53;9.32;;;6.12;;
65755;SDS011;69208;47.502;18.940;2023-12-29T02:05:57;8.20;;;6.45;;
65755;SDS011;69208;47.502;18.940;2023-12-29T02:07:01;10.70;;;6.65;;
65755;SDS011;69208;47.502;18.940;2023-12-29T02:08:05;9.23;;;6.90;;
65755;SDS011;69208;47.502;18.940;2023-12-29T02:09:11;11.23;;;6.43;;
65755;SDS011;69208;47.502;18.940;2023-12-29T02:10:19;8.43;;;5.82;;
65755;SDS011;69208;47.502;18.940;2023-12-29T02:11:22;9.85;;;6.60;;
65755;SDS011;69208;47.502;18.940;2023-12-29T02:12:25;8.88;;;6.32;;
65755;SDS011;69208;47.502;18.940;2023-12-29T02:13:29;9.00;;;6.12;;
65755;SDS011;69208;47.502;18.940;2023-12-29T02:14:32;9.63;;;6.55;;
65755;SDS011;69208;47.502;18.940;2023-12-29T02:15:36;9.40;;;6.53;;
65755;SDS011;69208;47.502;18.940;2023-12-29T02:16:46;10.70;;;6.90;;
65755;SDS011;69208;47.502;18.940;2023-12-29T02:18:06;9.68;;;6.00;;
65755;SDS011;69208;47.502;18.940;2023-12-29T02:19:23;10.80;;;6.12;;
65755;SDS011;69208;47.502;18.940;2023-12-29T02:20:37;10.25;;;6.28;;
65755;SDS011;69208;47.502;18.940;2023-12-29T02:21:40;9.80;;;5.95;;
65755;SDS011;69208;47.502;18.940;2023-12-29T02:22:44;8.07;;;5.68;;
65755;SDS011;69208;47.502;18.940;2023-12-29T02:23:47;9.35;;;5.82;;
65755;SDS011;69208;47.502;18.940;2023-12-29T02:24:50;11.27;;;6.15;;
65755;SDS011;69208;47.502;18.940;2023-12-29T02:25:55;8.60;;;6.37;;
65755;SDS011;69208;47.502;18.940;2023-12-29T02:27:07;8.90;;;6.25;;
65755;SDS011;69208;47.502;18.940;2023-12-29T02:28:18;9.32;;;5.72;;
65755;SDS011;69208;47.502;18.940;2023-12-29T02:29:26;9.02;;;6.43;;
65755;SDS011;69208;47.502;18.940;2023-12-29T02:30:33;10.05;;;6.65;;
65755;SDS011;69208;47.502;18.940;2023-12-29T02:31:42;9.15;;;6.15;;
65755;SDS011;69208;47.502;18.940;2023-12-29T02:32:49;9.40;;;6.60;;
65755;SDS011;69208;47.502;18.940;2023-12-29T02:33:58;9.68;;;6.72;;
65755;SDS011;69208;47.502;18.940;2023-12-29T02:35:06;8.02;;;5.82;;
65755;SDS011;69208;47.502;18.940;2023-12-29T02:36:13;9.40;;;6.43;;
65755;SDS011;69208;47.502;18.940;2023-12-29T02:37:19;9.80;;;6.25;;
65755;SDS011;69208;47.502;18.940;2023-12-29T02:38:23;8.75;;;6.30;;
65755;SDS011;69208;47.502;18.940;2023-12-29T02:39:30;11.30;;;6.93;;
65755;SDS011;69208;47.502;18.940;2023-12-29T02:40:34;10.77;;;6.93;;
65755;SDS011;69208;47.502;18.940;2023-12-29T02:41:38;10.07;;;6.32;;
65755;SDS011;69208;47.502;18.940;2023-12-29T02:42:45;8.15;;;6.03;;
65755;SDS011;69208;47.502;18.940;2023-12-29T02:43:51;8.73;;;6.10;;
65755;SDS011;69208;47.502;18.940;2023-12-29T02:44:55;9.98;;;6.87;;
65755;SDS011;69208;47.502;18.940;2023-12-29T02:45:58;10.98;;;6.90;;
65755;SDS011;69208;47.502;18.940;2023-12-29T02:47:01;11.40;;;8.05;;
65755;SDS011;69208;47.502;18.940;2023-12-29T02:48:07;8.68;;;6.68;;
65755;SDS011;69208;47.502;18.940;2023-12-29T02:49:11;11.48;;;7.90;;
65755;SDS011;69208;47.502;18.940;2023-12-29T02:50:16;12.05;;;6.87;;
65755;SDS011;69208;47.502;18.940;2023-12-29T02:51:20;9.52;;;7.07;;
65755;SDS011;69208;47.502;18.940;2023-12-29T02:52:23;11.38;;;6.70;;
65755;SDS011;69208;47.502;18.940;2023-12-29T02:53:26;9.40;;;6.70;;
65755;SDS011;69208;47.502;18.940;2023-12-29T02:54:31;8.63;;;6.30;;
65755;SDS011;69208;47.502;18.940;2023-12-29T02:55:34;11.10;;;6.60;;
65755;SDS011;69208;47.502;18.940;2023-12-29T02:56:37;12.10;;;6.72;;
65755;SDS011;69208;47.502;18.940;2023-12-29T02:57:40;10.50;;;6.45;;
65755;SDS011;69208;47.502;18.940;2023-12-29T02:58:44;9.10;;;6.53;;
65755;SDS011;69208;47.502;18.940;2023-12-29T02:59:48;9.65;;;6.53;;
65755;SDS011;69208;47.502;18.940;2023-12-29T03:00:51;10.07;;;6.60;;
65755;SDS011;69208;47.502;18.940;2023-12-29T03:01:54;11.40;;;7.37;;
65755;SDS011;69208;47.502;18.940;2023-12-29T03:02:58;12.43;;;7.90;;
65755;SDS011;69208;47.502;18.940;2023-12-29T03:04:01;11.63;;;7.60;;
65755;SDS011;69208;47.502;18.940;2023-12-29T03:05:04;10.82;;;7.45;;
65755;SDS011;69208;47.502;18.940;2023-12-29T03:06:08;13.55;;;7.25;;
65755;SDS011;69208;47.502;18.940;2023-12-29T03:07:11;11.98;;;7.53;;
65755;SDS011;69208;47.502;18.940;2023-12-29T03:08:15;10.25;;;7.65;;
65755;SDS011;69208;47.502;18.940;2023-12-29T03:09:18;11.85;;;7.90;;
65755;SDS011;69208;47.502;18.940;2023-12-29T03:10:21;10.95;;;7.47;;
65755;SDS011;69208;47.502;18.940;2023-12-29T03:11:25;13.88;;;7.05;;
65755;SDS011;69208;47.502;18.940;2023-12-29T03:12:28;8.98;;;6.65;;
65755;SDS011;69208;47.502;18.940;2023-12-29T03:13:33;9.27;;;6.85;;
65755;SDS011;69208;47.502;18.940;2023-12-29T03:14:37;8.73;;;6.68;;
65755;SDS011;69208;47.502;18.940;2023-12-29T03:15:40;10.13;;;7.03;;
65755;SDS011;69208;47.502;18.940;2023-12-29T03:16:43;11.15;;;6.95;;
65755;SDS011;69208;47.502;18.940;2023-12-29T03:17:47;9.70;;;6.43;;
65755;SDS011;69208;47.502;18.940;2023-12-29T03:18:50;9.80;;;6.53;;
65755;SDS011;69208;47.502;18.940;2023-12-29T03:19:54;10.73;;;6.97;;
65755;SDS011;69208;47.502;18.940;2023-12-29T03:20:57;11.65;;;8.02;;
65755;SDS011;69208;47.502;18.940;2023-12-29T03:22:01;11.77;;;7.85;;
65755;SDS011;69208;47.502;18.940;2023-12-29T03:23:04;10.95;;;7.55;;
65755;SDS011;69208;47.502;18.940;2023-12-29T03:24:08;9.45;;;6.70;;
65755;SDS011;69208;47.502;18.940;2023-12-29T03:25:11;10.93;;;7.65;;
65755;SDS011;69208;47.502;18.940;2023-12-29T03:26:15;13.60;;;8.32;;
65755;SDS011;69208;47.502;18.940;2023-12-29T03:27:18;12.27;;;8.10;;
65755;SDS011;69208;47.502;18.940;2023-12-29T03:28:21;13.73;;;8.27;;
65755;SDS011;69208;47.502;18.940;2023-12-29T03:29:25;8.85;;;6.65;;
65755;SDS011;69208;47.502;18.940;2023-12-29T03:30:28;16.30;;;8.55;;
65755;SDS011;69208;47.502;18.940;2023-12-29T03:31:32;11.30;;;7.87;;
65755;SDS011;69208;47.502;18.940;2023-12-29T03:32:35;10.88;;;7.55;;
65755;SDS011;69208;47.502;18.940;2023-12-29T03:33:38;13.20;;;8.48;;
65755;SDS011;69208;47.502;18.940;2023-12-29T03:34:42;11.00;;;8.57;;
65755;SDS011;69208;47.502;18.940;2023-12-29T03:35:46;14.85;;;8.85;;
65755;SDS011;69208;47.502;18.940;2023-12-29T03:36:50;11.63;;;8.90;;
65755;SDS011;69208;47.502;18.940;2023-12-29T03:37:53;13.48;;;8.75;;
65755;SDS011;69208;47.502;18.940;2023-12-29T03:38:56;13.90;;;9.68;;
65755;SDS011;69208;47.502;18.940;2023-12-29T03:40:00;11.75;;;9.13;;
65755;SDS011;69208;47.502;18.940;2023-12-29T03:41:03;14.95;;;9.70;;
65755;SDS011;69208;47.502;18.940;2023-12-29T03:42:07;14.95;;;10.25;;
65755;SDS011;69208;47.502;18.940;2023-12-29T03:43:10;13.25;;;9.75;;
65755;SDS011;69208;47.502;18.940;2023-12-29T03:44:13;13.77;;;9.93;;
65755;SDS011;69208;47.502;18.940;2023-12-29T03:45:16;12.98;;;8.95;;
65755;SDS011;69208;47.502;18.940;2023-12-29T03:46:20;14.95;;;10.63;;
65755;SDS011;69208;47.502;18.940;2023-12-29T03:47:24;14.82;;;9.68;;
65755;SDS011;69208;47.502;18.940;2023-12-29T03:48:27;15.48;;;10.18;;
65755;SDS011;69208;47.502;18.940;2023-12-29T03:49:31;12.30;;;9.55;;
65755;SDS011;69208;47.502;18.940;2023-12-29T03:50:35;12.63;;;8.85;;
65755;SDS011;69208;47.502;18.940;2023-12-29T03:51:38;15.18;;;9.45;;
65755;SDS011;69208;47.502;18.940;2023-12-29T03:52:42;18.50;;;10.05;;
65755;SDS011;69208;47.502;18.940;2023-12-29T03:53:45;15.70;;;10.15;;
65755;SDS011;69208;47.502;18.940;2023-12-29T03:54:48;12.65;;;9.65;;
65755;SDS011;69208;47.502;18.940;2023-12-29T03:55:51;14.10;;;9.65;;
65755;SDS011;69208;47.502;18.940;2023-12-29T03:56:55;14.73;;;10.25;;
65755;SDS011;69208;47.502;18.940;2023-12-29T03:57:58;12.77;;;9.65;;
65755;SDS011;69208;47.502;18.940;2023-12-29T03:59:03;13.90;;;9.73;;
65755;SDS011;69208;47.502;18.940;2023-12-29T04:00:07;13.07;;;9.48;;
65755;SDS011;69208;47.502;18.940;2023-12-29T04:01:14;14.63;;;9.57;;
65755;SDS011;69208;47.502;18.940;2023-12-29T04:02:18;12.68;;;9.00;;
65755;SDS011;69208;47.502;18.940;2023-12-29T04:03:22;11.57;;;8.73;;
65755;SDS011;69208;47.502;18.940;2023-12-29T04:04:25;12.00;;;9.05;;
65755;SDS011;69208;47.502;18.940;2023-12-29T04:05:29;11.27;;;8.95;;
65755;SDS011;69208;47.502;18.940;2023-12-29T04:06:32;14.75;;;9.10;;
65755;SDS011;69208;47.502;18.940;2023-12-29T04:07:35;11.30;;;8.55;;
65755;SDS011;69208;47.502;18.940;2023-12-29T04:08:38;13.35;;;8.95;;
65755;SDS011;69208;47.502;18.940;2023-12-29T04:09:41;12.45;;;8.95;;
65755;SDS011;69208;47.502;18.940;2023-12-29T04:10:44;10.15;;;7.85;;
65755;SDS011;69208;47.502;18.940;2023-12-29T04:11:48;12.00;;;8.43;;
65755;SDS011;69208;47.502;18.940;2023-12-29T04:12:51;13.13;;;7.72;;
65755;SDS011;69208;47.502;18.940;2023-12-29T04:13:55;11.85;;;7.55;;
65755;SDS011;69208;47.502;18.940;2023-12-29T04:14:58;9.98;;;7.68;;
65755;SDS011;69208;47.502;18.940;2023-12-29T04:16:02;11.57;;;7.57;;
65755;SDS011;69208;47.502;18.940;2023-12-29T04:17:05;11.38;;;7.65;;
65755;SDS011;69208;47.502;18.940;2023-12-29T04:18:17;10.55;;;6.90;;
65755;SDS011;69208;47.502;18.940;2023-12-29T04:19:21;13.65;;;7.85;;
65755;SDS011;69208;47.502;18.940;2023-12-29T04:20:24;10.75;;;7.15;;
65755;SDS011;69208;47.502;18.940;2023-12-29T04:21:28;10.35;;;6.90;;
65755;SDS011;69208;47.502;18.940;2023-12-29T04:22:31;8.95;;;6.93;;
65755;SDS011;69208;47.502;18.940;2023-12-29T04:23:34;9.75;;;6.72;;
65755;SDS011;69208;47.502;18.940;2023-12-29T04:24:38;8.60;;;6.78;;
65755;SDS011;69208;47.502;18.940;2023-12-29T04:25:42;14.38;;;6.47;;
65755;SDS011;69208;47.502;18.940;2023-12-29T04:26:45;13.15;;;6.07;;
65755;SDS011;69208;47.502;18.940;2023-12-29T04:27:49;11.25;;;6.25;;
65755;SDS011;69208;47.502;18.940;2023-12-29T04:28:52;9.18;;;6.20;;
65755;SDS011;69208;47.502;18.940;2023-12-29T04:29:55;7.68;;;6.03;;
65755;SDS011;69208;47.502;18.940;2023-12-29T04:30:59;11.98;;;7.32;;
65755;SDS011;69208;47.502;18.940;2023-12-29T04:32:02;9.50;;;6.72;;
65755;SDS011;69208;47.502;18.940;2023-12-29T04:33:06;11.30;;;6.65;;
65755;SDS011;69208;47.502;18.940;2023-12-29T04:34:09;8.27;;;6.00;;
65755;SDS011;69208;47.502;18.940;2023-12-29T04:35:12;8.30;;;5.97;;
65755;SDS011;69208;47.502;18.940;2023-12-29T04:36:17;8.30;;;6.32;;
65755;SDS011;69208;47.502;18.940;2023-12-29T04:37:23;8.48;;;6.65;;
65755;SDS011;69208;47.502;18.940;2023-12-29T04:38:26;11.77;;;6.75;;
65755;SDS011;69208;47.502;18.940;2023-12-29T04:39:29;11.38;;;6.72;;
65755;SDS011;69208;47.502;18.940;2023-12-29T04:40:32;9.10;;;6.95;;
65755;SDS011;69208;47.502;18.940;2023-12-29T04:41:36;12.05;;;7.82;;
65755;SDS011;69208;47.502;18.940;2023-12-29T04:42:39;10.73;;;6.95;;
65755;SDS011;69208;47.502;18.940;2023-12-29T04:43:42;10.50;;;6.70;;
65755;SDS011;69208;47.502;18.940;2023-12-29T04:44:45;8.02;;;6.30;;
65755;SDS011;69208;47.502;18.940;2023-12-29T04:45:48;9.25;;;7.22;;
65755;SDS011;69208;47.502;18.940;2023-12-29T04:46:51;8.50;;;6.80;;
65755;SDS011;69208;47.502;18.940;2023-12-29T04:47:54;10.10;;;7.15;;
65755;SDS011;69208;47.502;18.940;2023-12-29T04:48:58;10.60;;;6.95;;
65755;SDS011;69208;47.502;18.940;2023-12-29T04:50:02;8.73;;;6.57;;
65755;SDS011;69208;47.502;18.940;2023-12-29T04:51:05;9.32;;;7.28;;
65755;SDS011;69208;47.502;18.940;2023-12-29T04:52:08;13.70;;;7.07;;
65755;SDS011;69208;47.502;18.940;2023-12-29T04:53:12;11.27;;;7.45;;
65755;SDS011;69208;47.502;18.940;2023-12-29T04:54:15;12.63;;;7.20;;
65755;SDS011;69208;47.502;18.940;2023-12-29T04:55:18;11.40;;;7.07;;
65755;SDS011;69208;47.502;18.940;2023-12-29T04:56:21;10.57;;;7.25;;
65755;SDS011;69208;47.502;18.940;2023-12-29T04:57:24;9.05;;;7.10;;
65755;SDS011;69208;47.502;18.940;2023-12-29T04:58:27;9.93;;;6.68;;
65755;SDS011;69208;47.502;18.940;2023-12-29T04:59:31;9.43;;;7.25;;
65755;SDS011;69208;47.502;18.940;2023-12-29T05:00:34;14.45;;;8.02;;
65755;SDS011;69208;47.502;18.940;2023-12-29T05:01:38;11.48;;;7.40;;
65755;SDS011;69208;47.502;18.940;2023-12-29T05:02:41;13.80;;;7.90;;
65755;SDS011;69208;47.502;18.940;2023-12-29T05:03:44;11.20;;;8.32;;
65755;SDS011;69208;47.502;18.940;2023-12-29T05:04:48;10.30;;;8.00;;
65755;SDS011;69208;47.502;18.940;2023-12-29T05:05:51;12.00;;;8.82;;
65755;SDS011;69208;47.502;18.940;2023-12-29T05:06:54;13.00;;;9.07;;
65755;SDS011;69208;47.502;18.940;2023-12-29T05:07:57;14.40;;;9.27;;
65755;SDS011;69208;47.502;18.940;2023-12-29T05:09:01;12.75;;;8.43;;
65755;SDS011;69208;47.502;18.940;2023-12-29T05:10:05;12.57;;;8.90;;
65755;SDS011;69208;47.502;18.940;2023-12-29T05:11:09;13.60;;;8.38;;
65755;SDS011;69208;47.502;18.940;2023-12-29T05:12:12;11.25;;;8.10;;
65755;SDS011;69208;47.502;18.940;2023-12-29T05:13:15;11.90;;;9.00;;
65755;SDS011;69208;47.502;18.940;2023-12-29T05:14:19;11.18;;;9.02;;
65755;SDS011;69208;47.502;18.940;2023-12-29T05:15:22;10.00;;;7.97;;
65755;SDS011;69208;47.502;18.940;2023-12-29T05:16:25;12.88;;;9.75;;
65755;SDS011;69208;47.502;18.940;2023-12-29T05:17:28;14.27;;;9.90;;
65755;SDS011;69208;47.502;18.940;2023-12-29T05:18:31;10.98;;;8.57;;
65755;SDS011;69208;47.502;18.940;2023-12-29T05:19:35;15.95;;;9.90;;
65755;SDS011;69208;47.502;18.940;2023-12-29T05:20:38;13.25;;;9.40;;
65755;SDS011;69208;47.502;18.940;2023-12-29T05:21:41;10.95;;;8.57;;
65755;SDS011;69208;47.502;18.940;2023-12-29T05:22:45;11.15;;;8.32;;
65755;SDS011;69208;47.502;18.940;2023-12-29T05:23:48;11.55;;;8.10;;
65755;SDS011;69208;47.502;18.940;2023-12-29T05:24:51;10.20;;;8.27;;
65755;SDS011;69208;47.502;18.940;2023-12-29T05:25:54;13.38;;;7.72;;
65755;SDS011;69208;47.502;18.940;2023-12-29T05:26:58;10.68;;;8.13;;
65755;SDS011;69208;47.502;18.940;2023-12-29T05:28:01;10.55;;;8.10;;
65755;SDS011;69208;47.502;18.940;2023-12-29T05:29:05;10.95;;;8.48;;
65755;SDS011;69208;47.502;18.940;2023-12-29T05:30:08;11.15;;;7.95;;
65755;SDS011;69208;47.502;18.940;2023-12-29T05:31:11;10.95;;;8.50;;
65755;SDS011;69208;47.502;18.940;2023-12-29T05:32:15;10.85;;;8.07;;
65755;SDS011;69208;47.502;18.940;2023-12-29T05:33:18;13.52;;;9.05;;
65755;SDS011;69208;47.502;18.940;2023-12-29T05:34:22;12.13;;;8.52;;
65755;SDS011;69208;47.502;18.940;2023-12-29T05:35:25;10.77;;;8.65;;
65755;SDS011;69208;47.502;18.940;2023-12-29T05:36:28;12.37;;;8.52;;
65755;SDS011;69208;47.502;18.940;2023-12-29T05:37:32;12.10;;;8.57;;
65755;SDS011;69208;47.502;18.940;2023-12-29T05:38:36;12.55;;;8.50;;
65755;SDS011;69208;47.502;18.940;2023-12-29T05:39:43;12.93;;;8.60;;
65755;SDS011;69208;47.502;18.940;2023-12-29T05:40:46;12.48;;;8.68;;
65755;SDS011;69208;47.502;18.940;2023-12-29T05:41:50;10.30;;;8.15;;
65755;SDS011;69208;47.502;18.940;2023-12-29T05:42:53;12.70;;;8.90;;
65755;SDS011;69208;47.502;18.940;2023-12-29T05:43:56;13.70;;;8.73;;
65755;SDS011;69208;47.502;18.940;2023-12-29T05:45:04;12.95;;;8.40;;
65755;SDS011;69208;47.502;18.940;2023-12-29T05:46:11;11.93;;;8.73;;
65755;SDS011;69208;47.502;18.940;2023-12-29T05:47:16;14.90;;;8.40;;
65755;SDS011;69208;47.502;18.940;2023-12-29T05:48:20;10.10;;;7.28;;
65755;SDS011;69208;47.502;18.940;2023-12-29T05:49:24;13.07;;;8.18;;
65755;SDS011;69208;47.502;18.940;2023-12-29T05:50:29;16.35;;;8.00;;
65755;SDS011;69208;47.502;18.940;2023-12-29T05:51:32;12.13;;;7.87;;
65755;SDS011;69208;47.502;18.940;2023-12-29T05:52:35;10.60;;;7.28;;
65755;SDS011;69208;47.502;18.940;2023-12-29T05:53:41;11.02;;;7.10;;
65755;SDS011;69208;47.502;18.940;2023-12-29T05:54:46;10.93;;;7.78;;
65755;SDS011;69208;47.502;18.940;2023-12-29T05:55:51;10.15;;;7.30;;
65755;SDS011;69208;47.502;18.940;2023-12-29T05:56:54;9.07;;;6.82;;
65755;SDS011;69208;47.502;18.940;2023-12-29T05:57:58;9.10;;;6.47;;
65755;SDS011;69208;47.502;18.940;2023-12-29T05:59:01;9.95;;;7.20;;
65755;SDS011;69208;47.502;18.940;2023-12-29T06:00:05;11.18;;;6.68;;
65755;SDS011;69208;47.502;18.940;2023-12-29T06:01:09;9.77;;;6.65;;
65755;SDS011;69208;47.502;18.940;2023-12-29T06:02:13;8.00;;;6.20;;
65755;SDS011;69208;47.502;18.940;2023-12-29T06:03:16;8.57;;;6.12;;
65755;SDS011;69208;47.502;18.940;2023-12-29T06:04:20;8.88;;;5.87;;
65755;SDS011;69208;47.502;18.940;2023-12-29T06:05:23;8.65;;;6.12;;
65755;SDS011;69208;47.502;18.940;2023-12-29T06:06:27;7.82;;;6.05;;
65755;SDS011;69208;47.502;18.940;2023-12-29T06:07:30;11.00;;;6.40;;
65755;SDS011;69208;47.502;18.940;2023-12-29T06:08:33;10.68;;;6.10;;
65755;SDS011;69208;47.502;18.940;2023-12-29T06:09:36;7.95;;;6.07;;
65755;SDS011;69208;47.502;18.940;2023-12-29T06:10:40;8.07;;;5.78;;
65755;SDS011;69208;47.502;18.940;2023-12-29T06:11:43;7.55;;;5.43;;
65755;SDS011;69208;47.502;18.940;2023-12-29T06:12:46;9.10;;;5.55;;
65755;SDS011;69208;47.502;18.940;2023-12-29T06:13:49;9.68;;;5.80;;
65755;SDS011;69208;47.502;18.940;2023-12-29T06:14:52;7.68;;;5.35;;
65755;SDS011;69208;47.502;18.940;2023-12-29T06:15:55;10.27;;;5.82;;
65755;SDS011;69208;47.502;18.940;2023-12-29T06:16:58;7.65;;;5.43;;